Oatville, Kansas
Current Conditions -  °F | °C
As of 2:53 AM on Saturday 22 Nov 2014 (Local Time) from KICT Reporting Station
Haze Haze  
Wind Chill: 44°   Ceiling: 400
Heat Index: 44°   Visibility: 4mi
Dew Point: 44°   Wind: 0mph
Humidity: 100%   Direction: NA
Pressure: 30.03"   Gusts: NA
Location:  37.6181°N, 97.4387°W
Report Text: KICT 220853Z 00000KT 4SM BR BKN004 OVC019 07/07 A3003 RMK AO2 SLP172 T00670067 58002
Loading
Personal Weather Stations






























Interactive Weather Map New forecast layout! Learn more

10-Day Weather Forecast

Advertisements
Track Severe Weather on mobile